Time;durP1;ratioP1;P1;durP2;ratioP2;P2;SDS_P1;SDS_P2;PMS_P1;PMS_P2;Temp;Humidity;BMP_temperature;BMP_pressure;BME280_temperature;BME280_humidity;BME280_pressure;Samples;Min_cycle;Max_cycle;Signal;HPM_P1;HPM_P2
2022/12/30 00:00:47;;;;;;;9.83;3.40;;;7.40;99.90;;;;;;2614502;54;20379;-78
2022/12/30 00:03:13;;;;;;;9.20;4.40;;;7.30;99.90;;;;;;2615108;54;20433;-78
2022/12/30 00:05:39;;;;;;;6.90;3.37;;;7.20;99.90;;;;;;2614724;54;20515;-77
2022/12/30 00:08:45;;;;;;;7.90;3.60;;;7.20;99.90;;;;;;2613943;54;20454;-77
2022/12/30 00:10:50;;;;;;;12.93;3.43;;;7.20;99.90;;;;;;2614055;47;20166;-77
2022/12/30 00:35:17;;;;;;;16.27;3.43;;;7.20;99.90;;;;;;2611898;54;20415;-78
2022/12/30 00:37:44;;;;;;;8.97;3.77;;;7.20;99.90;;;;;;2610451;39;20477;-78
2022/12/30 00:40:10;;;;;;;11.53;4.30;;;7.20;99.90;;;;;;2610548;54;20507;-79
2022/12/30 00:45:21;;;;;;;11.80;4.00;;;7.10;99.90;;;;;;2612586;54;20422;-78
2022/12/30 00:47:47;;;;;;;18.30;4.60;;;7.20;99.90;;;;;;2611554;47;20494;-78
2022/12/30 00:58:25;;;;;;;9.30;3.53;;;7.00;99.90;;;;;;2612999;54;20442;-77
2022/12/30 01:00:51;;;;;;;7.30;3.20;;;6.90;99.90;;;;;;2613669;54;20921;-77
2022/12/30 01:03:16;;;;;;;13.17;2.83;;;6.90;99.90;;;;;;2614214;54;20150;-78
2022/12/30 01:05:42;;;;;;;10.20;3.23;;;6.90;99.90;;;;;;2613339;54;20165;-78
2022/12/30 01:08:08;;;;;;;8.13;3.17;;;6.90;99.90;;;;;;2611953;54;20155;-78
2022/12/30 01:10:33;;;;;;;9.33;3.23;;;6.90;99.90;;;;;;2613527;47;20193;-78
2022/12/30 01:12:59;;;;;;;8.33;3.90;;;6.90;99.90;;;;;;2614667;39;21052;-78
2022/12/30 01:15:25;;;;;;;13.50;3.70;;;6.80;99.90;;;;;;2614060;54;20154;-80
2022/12/30 01:17:51;;;;;;;12.67;4.20;;;6.90;99.90;;;;;;2614642;54;20143;-79
2022/12/30 01:20:16;;;;;;;7.67;3.50;;;7.00;99.90;;;;;;2612730;54;20447;-78
2022/12/30 01:22:42;;;;;;;13.63;4.40;;;6.90;99.90;;;;;;2613920;54;20169;-78
2022/12/30 01:25:08;;;;;;;6.27;2.90;;;6.90;99.90;;;;;;2612414;54;20155;-80
2022/12/30 01:27:34;;;;;;;8.53;3.53;;;6.90;99.90;;;;;;2613129;54;20155;-81
2022/12/30 01:30:00;;;;;;;8.80;3.13;;;7.00;99.90;;;;;;2613858;54;21166;-75
2022/12/30 01:32:28;;;;;;;14.53;4.60;;;6.90;99.90;;;;;;2613409;54;20166;-76
2022/12/30 01:34:55;;;;;;;14.23;3.83;;;6.90;99.90;;;;;;2613983;54;20423;-81
2022/12/30 01:37:21;;;;;;;10.90;3.50;;;6.90;99.90;;;;;;2614528;54;20402;-81
2022/12/30 01:39:47;;;;;;;10.70;3.93;;;6.90;99.90;;;;;;2614132;54;20506;-81
2022/12/30 01:42:22;;;;;;;12.10;3.70;;;6.90;99.90;;;;;;2614847;54;20407;-81
2022/12/30 01:44:57;;;;;;;13.40;4.20;;;6.80;99.90;;;;;;2611822;54;20981;-81
2022/12/30 01:47:27;;;;;;;5.93;3.20;;;6.70;99.90;;;;;;2614153;54;20414;-81
2022/12/30 01:49:58;;;;;;;8.40;3.23;;;6.60;99.90;;;;;;2614212;54;20522;-80
2022/12/30 01:52:26;;;;;;;18.07;3.63;;;6.80;99.90;;;;;;2614427;54;20498;-81
2022/12/30 01:54:58;;;;;;;12.33;3.80;;;6.60;99.90;;;;;;2612619;47;20422;-80
2022/12/30 01:57:24;;;;;;;8.03;4.10;;;6.60;99.90;;;;;;2614400;54;20427;-80
2022/12/30 01:59:50;;;;;;;9.03;4.40;;;6.60;99.90;;;;;;2612946;54;20420;-78
2022/12/30 02:02:16;;;;;;;11.73;4.10;;;6.60;99.90;;;;;;2612822;39;20810;-79
2022/12/30 02:04:42;;;;;;;8.67;4.70;;;6.80;99.90;;;;;;2613501;54;20170;-79
2022/12/30 02:07:25;;;;;;;10.10;3.70;;;6.70;99.90;;;;;;2611503;54;20446;-78
2022/12/30 02:09:51;;;;;;;10.50;3.40;;;6.70;99.90;;;;;;2613153;39;20565;-79
2022/12/30 02:12:17;;;;;;;20.93;4.50;;;6.60;99.90;;;;;;2613762;54;20417;-79
2022/12/30 02:14:44;;;;;;;9.57;3.40;;;6.70;99.90;;;;;;2613339;54;21528;-79
2022/12/30 02:17:22;;;;;;;7.03;4.03;;;6.70;99.90;;;;;;2614152;54;20414;-79
2022/12/30 02:20:18;;;;;;;7.53;3.07;;;6.60;99.90;;;;;;2612536;46;20451;-79
2022/12/30 02:22:52;;;;;;;14.60;5.70;;;6.50;99.90;;;;;;2614464;39;20693;-78
2022/12/30 02:25:56;;;;;;;9.60;3.33;;;6.60;99.90;;;;;;2613101;47;20518;-78
2022/12/30 02:28:48;;;;;;;8.63;3.30;;;6.50;99.90;;;;;;2613406;54;20419;-80
2022/12/30 02:31:32;;;;;;;10.80;3.70;;;6.50;99.90;;;;;;2613433;39;21173;-77
2022/12/30 02:34:30;;;;;;;14.73;3.70;;;6.60;99.90;;;;;;2614113;54;20446;-76
2022/12/30 02:37:24;;;;;;;4.90;2.47;;;6.60;99.90;;;;;;2613377;54;20434;-76
2022/12/30 02:40:19;;;;;;;16.80;4.00;;;6.70;99.90;;;;;;2610509;47;20415;-77
2022/12/30 02:45:58;;;;;;;14.80;3.60;;;6.50;99.90;;;;;;2613527;54;20419;-77
2022/12/30 02:48:31;;;;;;;12.23;3.70;;;6.50;99.90;;;;;;2613138;39;20467;-77
2022/12/30 02:53:44;;;;;;;9.33;4.00;;;6.40;99.90;;;;;;2614004;54;20406;-79
2022/12/30 02:56:09;;;;;;;9.33;3.40;;;6.60;99.90;;;;;;2612867;54;20391;-79
2022/12/30 02:58:38;;;;;;;12.63;3.40;;;6.70;99.90;;;;;;2613261;54;20246;-79
2022/12/30 03:04:31;;;;;;;14.57;3.80;;;6.60;99.90;;;;;;2611880;54;20370;-77
2022/12/30 03:07:05;;;;;;;5.87;2.87;;;6.60;99.90;;;;;;2611723;54;20431;-77
2022/12/30 03:11:12;;;;;;;22.20;4.20;;;6.70;99.90;;;;;;2610669;54;20431;-78
2022/12/30 03:12:39;;;;;;;11.10;4.53;;;6.50;99.90;;;;;;2612070;54;20431;-78
2022/12/30 03:15:14;;;;;;;9.87;3.73;;;6.30;99.90;;;;;;2610784;54;20513;-77
2022/12/30 03:17:41;;;;;;;7.53;3.93;;;6.50;99.90;;;;;;2611840;54;20396;-77
2022/12/30 03:20:11;;;;;;;12.90;3.80;;;6.50;99.90;;;;;;2610629;54;20411;-78
2022/12/30 03:28:12;;;;;;;11.90;4.13;;;6.30;99.90;;;;;;2611665;54;20432;-77
2022/12/30 03:30:58;;;;;;;20.23;4.50;;;6.30;99.90;;;;;;2612714;54;20564;-79
2022/12/30 03:33:27;;;;;;;11.70;3.57;;;6.20;99.90;;;;;;2612519;54;20403;-79
2022/12/30 03:35:56;;;;;;;13.73;3.03;;;6.10;99.90;;;;;;2611695;54;20410;-80
2022/12/30 03:38:28;;;;;;;8.77;3.23;;;6.30;99.90;;;;;;2611515;54;20404;-78
2022/12/30 03:40:57;;;;;;;7.90;3.40;;;6.40;99.90;;;;;;2612007;54;20427;-78
2022/12/30 03:43:25;;;;;;;11.10;3.47;;;6.40;99.90;;;;;;2612870;54;20404;-75
2022/12/30 03:45:51;;;;;;;10.60;3.27;;;6.40;99.90;;;;;;2613320;39;20843;-75
2022/12/30 03:48:17;;;;;;;13.03;4.57;;;6.30;99.90;;;;;;2613446;54;20427;-77
2022/12/30 03:50:44;;;;;;;9.90;3.63;;;6.30;99.90;;;;;;2613434;54;20170;-77
2022/12/30 03:53:10;;;;;;;8.90;4.00;;;6.40;99.90;;;;;;2614655;54;20197;-76
2022/12/30 03:55:36;;;;;;;8.30;3.63;;;6.30;99.90;;;;;;2612667;54;20435;-76
2022/12/30 03:58:01;;;;;;;11.13;4.33;;;6.40;99.90;;;;;;2613532;54;20184;-75
2022/12/30 04:00:27;;;;;;;13.43;3.77;;;6.40;99.90;;;;;;2611966;54;20154;-75
2022/12/30 04:02:53;;;;;;;14.63;5.30;;;6.40;99.90;;;;;;2613540;46;20214;-75
2022/12/30 04:05:18;;;;;;;17.33;4.43;;;6.40;99.90;;;;;;2613402;46;20158;-79
2022/12/30 04:07:44;;;;;;;13.57;5.33;;;6.40;99.90;;;;;;2613467;54;20158;-79
2022/12/30 04:10:10;;;;;;;13.43;4.47;;;6.30;99.90;;;;;;2613202;39;20629;-77
2022/12/30 04:12:35;;;;;;;13.23;3.50;;;6.30;99.90;;;;;;2612328;47;20706;-77
2022/12/30 04:15:01;;;;;;;14.43;3.00;;;6.30;99.90;;;;;;2611632;39;20703;-75
2022/12/30 04:17:26;;;;;;;7.07;3.40;;;6.20;99.90;;;;;;2611927;54;20161;-75
2022/12/30 04:19:52;;;;;;;16.63;3.80;;;6.40;99.90;;;;;;2613271;54;20179;-79
2022/12/30 04:22:18;;;;;;;17.17;4.30;;;6.40;99.90;;;;;;2613116;39;20341;-79
2022/12/30 04:24:43;;;;;;;6.00;3.43;;;6.40;99.90;;;;;;2612764;54;20157;-77
2022/12/30 04:27:09;;;;;;;10.67;5.33;;;6.40;99.90;;;;;;2612365;47;20171;-76
2022/12/30 04:29:34;;;;;;;8.57;3.20;;;6.40;99.90;;;;;;2613625;47;20254;-81
2022/12/30 04:32:00;;;;;;;12.67;3.37;;;6.40;99.90;;;;;;2613677;54;20162;-81
2022/12/30 04:34:26;;;;;;;13.93;3.67;;;6.30;99.90;;;;;;2611714;46;20174;-76
2022/12/30 04:36:51;;;;;;;8.93;3.93;;;6.30;99.90;;;;;;2613468;54;20155;-76
2022/12/30 04:39:17;;;;;;;10.73;3.57;;;6.20;99.90;;;;;;2612417;47;20169;-78
2022/12/30 04:41:42;;;;;;;6.83;3.07;;;6.30;99.90;;;;;;2613897;54;20151;-78
2022/12/30 04:44:08;;;;;;;10.33;5.53;;;6.20;99.90;;;;;;2613080;54;20162;-78
2022/12/30 04:46:34;;;;;;;9.83;3.40;;;6.30;99.90;;;;;;2613421;47;20712;-78
2022/12/30 04:48:59;;;;;;;5.70;3.10;;;6.30;99.90;;;;;;2612464;54;20165;-78
2022/12/30 04:51:25;;;;;;;13.70;4.20;;;6.20;99.90;;;;;;2613637;54;20258;-77
2022/12/30 04:53:51;;;;;;;13.30;3.63;;;6.30;99.90;;;;;;2612915;54;20162;-76
2022/12/30 04:56:17;;;;;;;10.63;3.97;;;6.30;99.90;;;;;;2612639;54;20185;-76
2022/12/30 04:58:43;;;;;;;6.07;3.70;;;6.30;99.90;;;;;;2613463;46;20186;-77
2022/12/30 05:01:09;;;;;;;10.13;4.20;;;6.30;99.90;;;;;;2611825;54;20480;-77
2022/12/30 05:03:34;;;;;;;9.80;3.37;;;6.20;99.90;;;;;;2612687;54;20171;-75
2022/12/30 05:06:00;;;;;;;10.10;4.03;;;6.10;99.90;;;;;;2612266;54;20154;-75
2022/12/30 05:08:26;;;;;;;14.60;3.80;;;6.00;99.90;;;;;;2612137;54;20852;-75
2022/12/30 05:10:51;;;;;;;6.67;2.80;;;5.90;99.90;;;;;;2612695;54;20210;-75
2022/12/30 05:13:17;;;;;;;9.03;2.73;;;6.00;99.90;;;;;;2612322;47;20166;-78
2022/12/30 05:15:43;;;;;;;7.20;3.60;;;5.90;99.90;;;;;;2613465;54;20167;-78
2022/12/30 05:18:10;;;;;;;4.90;2.60;;;5.80;99.90;;;;;;2611567;54;20150;-77
2022/12/30 05:20:36;;;;;;;12.90;3.60;;;5.80;99.90;;;;;;2612085;54;21062;-78
2022/12/30 05:23:01;;;;;;;13.33;3.77;;;5.90;99.90;;;;;;2613363;54;20411;-79
2022/12/30 05:28:11;;;;;;;4.93;3.23;;;5.80;99.90;;;;;;2613302;39;20576;-79
2022/12/30 05:30:37;;;;;;;13.93;4.00;;;5.90;99.90;;;;;;2611385;54;20418;-79
2022/12/30 05:33:03;;;;;;;9.17;3.30;;;6.00;99.90;;;;;;2613414;54;20163;-79
2022/12/30 05:35:28;;;;;;;15.77;3.60;;;5.90;99.90;;;;;;2610801;54;20147;-79
2022/12/30 05:37:54;;;;;;;9.80;4.50;;;5.80;99.90;;;;;;2614238;54;20162;-79
2022/12/30 05:40:28;;;;;;;11.70;3.83;;;5.80;99.90;;;;;;2612425;54;20159;-76
2022/12/30 05:42:54;;;;;;;11.00;4.53;;;5.80;99.90;;;;;;2613696;54;20158;-77
2022/12/30 05:45:19;;;;;;;8.10;3.00;;;5.80;99.90;;;;;;2613001;54;20419;-77
2022/12/30 05:47:45;;;;;;;8.53;3.63;;;5.90;99.90;;;;;;2614216;54;20159;-77
2022/12/30 05:50:11;;;;;;;13.90;3.90;;;5.90;99.90;;;;;;2613060;54;20197;-79
2022/12/30 05:52:36;;;;;;;14.90;4.33;;;5.70;99.90;;;;;;2615771;39;21095;-79
2022/12/30 05:55:02;;;;;;;20.20;4.40;;;5.90;99.90;;;;;;2614314;54;20162;-77
2022/12/30 05:57:28;;;;;;;9.60;3.83;;;6.00;99.90;;;;;;2614839;54;20155;-78
2022/12/30 05:59:53;;;;;;;14.80;3.67;;;5.90;99.90;;;;;;2615368;54;20270;-78
2022/12/30 06:02:19;;;;;;;9.80;3.70;;;5.90;99.90;;;;;;2614164;47;20158;-79
2022/12/30 06:04:45;;;;;;;11.63;3.23;;;5.90;99.90;;;;;;2614455;54;20154;-77
2022/12/30 06:07:11;;;;;;;7.17;3.30;;;6.00;99.90;;;;;;2614062;46;20198;-77
2022/12/30 06:09:37;;;;;;;8.10;2.90;;;5.90;99.90;;;;;;2613774;54;20155;-78
2022/12/30 06:12:03;;;;;;;11.30;3.20;;;6.00;99.90;;;;;;2614392;54;20434;-78
2022/12/30 06:14:29;;;;;;;7.20;3.80;;;6.20;99.90;;;;;;2614606;54;20161;-80
2022/12/30 06:16:54;;;;;;;9.40;3.60;;;6.10;99.90;;;;;;2614622;54;20283;-78
2022/12/30 06:19:20;;;;;;;12.33;3.63;;;6.00;99.90;;;;;;2613356;54;20278;-81
2022/12/30 06:21:45;;;;;;;13.73;4.20;;;6.00;99.90;;;;;;2613623;54;20155;-81
2022/12/30 06:24:11;;;;;;;10.50;3.23;;;6.20;99.90;;;;;;2614822;47;20160;-79
2022/12/30 06:26:40;;;;;;;11.07;3.60;;;6.20;99.90;;;;;;2614106;54;20746;-79
2022/12/30 06:29:05;;;;;;;12.10;3.83;;;6.20;99.90;;;;;;2613505;47;20172;-79
2022/12/30 06:31:31;;;;;;;13.53;4.43;;;6.30;99.90;;;;;;2613166;54;21370;-78
2022/12/30 06:33:56;;;;;;;13.07;4.10;;;6.30;99.90;;;;;;2612276;54;20864;-78
2022/12/30 06:36:22;;;;;;;11.13;4.10;;;6.30;99.90;;;;;;2612511;54;20277;-78
2022/12/30 06:38:48;;;;;;;13.13;3.80;;;6.30;99.90;;;;;;2612648;54;20147;-78
2022/12/30 06:41:13;;;;;;;10.57;3.97;;;6.20;99.90;;;;;;2613579;54;20154;-78
2022/12/30 06:43:39;;;;;;;9.77;3.37;;;6.40;99.90;;;;;;2613512;54;20165;-76
2022/12/30 06:46:05;;;;;;;10.40;3.67;;;6.30;99.90;;;;;;2612336;54;20154;-77
2022/12/30 06:48:30;;;;;;;10.00;4.20;;;6.40;99.90;;;;;;2612929;54;20478;-79
2022/12/30 06:51:01;;;;;;;6.20;3.50;;;6.40;99.90;;;;;;2613410;54;20686;-79
2022/12/30 06:53:27;;;;;;;6.60;3.30;;;6.30;99.90;;;;;;2613969;54;20158;-79
2022/12/30 06:55:53;;;;;;;6.23;3.00;;;6.50;99.90;;;;;;2613425;54;20995;-78
2022/12/30 06:58:18;;;;;;;9.60;3.90;;;6.30;99.90;;;;;;2612427;54;20415;-78
2022/12/30 07:00:45;;;;;;;13.30;3.47;;;6.40;99.90;;;;;;2613415;54;20411;-77
2022/12/30 07:03:11;;;;;;;10.50;3.30;;;6.40;99.90;;;;;;2614124;54;20151;-80
2022/12/30 07:05:37;;;;;;;11.93;3.13;;;6.40;99.90;;;;;;2613177;54;20403;-79
2022/12/30 07:08:03;;;;;;;8.80;3.50;;;6.40;99.90;;;;;;2612463;54;20416;-79
2022/12/30 07:10:28;;;;;;;8.13;4.40;;;6.30;99.90;;;;;;2614127;54;20182;-79
2022/12/30 07:12:54;;;;;;;7.70;4.37;;;6.50;99.90;;;;;;2613953;54;20146;-78
2022/12/30 07:15:20;;;;;;;10.63;3.40;;;6.30;99.90;;;;;;2613735;54;20286;-79
2022/12/30 07:17:46;;;;;;;8.93;4.90;;;6.20;99.90;;;;;;2613724;47;21110;-78
2022/12/30 07:20:18;;;;;;;10.10;3.50;;;6.30;99.90;;;;;;2613414;46;20183;-79
2022/12/30 07:22:44;;;;;;;7.30;3.43;;;6.50;99.90;;;;;;2614014;54;20426;-79
2022/12/30 07:25:10;;;;;;;9.53;3.80;;;6.40;99.90;;;;;;2612428;54;20435;-77
2022/12/30 07:27:35;;;;;;;8.33;3.53;;;6.40;99.90;;;;;;2614123;39;20778;-76
2022/12/30 07:30:01;;;;;;;7.17;3.90;;;6.40;99.90;;;;;;2613626;54;20406;-78
2022/12/30 07:32:27;;;;;;;6.30;2.63;;;6.50;99.90;;;;;;2613084;54;20159;-78
2022/12/30 07:34:53;;;;;;;8.90;3.20;;;6.70;99.90;;;;;;2613443;54;20419;-76
2022/12/30 07:37:18;;;;;;;15.53;4.17;;;6.60;99.90;;;;;;2613176;54;20282;-77
2022/12/30 07:39:44;;;;;;;5.43;2.13;;;6.70;99.90;;;;;;2613472;31;20638;-80
2022/12/30 07:42:10;;;;;;;8.53;3.73;;;6.70;99.90;;;;;;2612373;54;20178;-80
2022/12/30 07:44:37;;;;;;;7.10;3.50;;;6.60;99.90;;;;;;2613154;54;20166;-77
2022/12/30 07:47:03;;;;;;;14.03;4.03;;;6.70;99.90;;;;;;2613402;54;20155;-78
2022/12/30 07:49:29;;;;;;;7.43;3.40;;;6.70;99.90;;;;;;2613331;54;20427;-77
2022/12/30 07:51:55;;;;;;;9.97;3.63;;;6.70;99.90;;;;;;2614002;54;20463;-77
2022/12/30 07:54:21;;;;;;;8.00;3.50;;;6.90;99.90;;;;;;2612694;54;20173;-80
2022/12/30 07:56:47;;;;;;;8.77;3.70;;;7.00;99.90;;;;;;2613490;54;20162;-80
2022/12/30 07:59:12;;;;;;;11.30;3.03;;;6.90;99.90;;;;;;2611828;54;20530;-77
2022/12/30 08:01:38;;;;;;;6.60;3.23;;;7.00;99.90;;;;;;2611732;54;20254;-77
2022/12/30 08:04:04;;;;;;;17.13;4.20;;;7.10;99.90;;;;;;2612227;54;20157;-77
2022/12/30 08:06:30;;;;;;;2.30;1.90;;;7.10;99.90;;;;;;2612394;47;20435;-77
2022/12/30 08:08:56;;;;;;;7.50;3.10;;;7.10;99.90;;;;;;2613078;54;20419;-80
2022/12/30 08:11:21;;;;;;;5.97;3.40;;;7.10;99.90;;;;;;2612713;54;20154;-79
2022/12/30 08:13:47;;;;;;;8.30;3.40;;;7.30;99.90;;;;;;2611529;54;20170;-79
2022/12/30 08:16:15;;;;;;;7.57;3.27;;;7.30;99.90;;;;;;2611926;54;20247;-79
2022/12/30 08:18:41;;;;;;;17.70;2.90;;;7.30;99.90;;;;;;2611837;47;20191;-80
2022/12/30 08:21:10;;;;;;;4.90;2.80;;;7.30;99.90;;;;;;2613711;31;20906;-79
2022/12/30 08:23:36;;;;;;;6.80;2.67;;;7.50;99.90;;;;;;2611775;54;20489;-77
2022/12/30 08:26:07;;;;;;;6.37;2.93;;;7.50;99.90;;;;;;2612756;54;20427;-77
2022/12/30 08:28:33;;;;;;;3.47;3.17;;;7.60;99.90;;;;;;2613061;54;20550;-76
2022/12/30 08:31:02;;;;;;;6.37;3.40;;;7.60;99.90;;;;;;2609687;54;20383;-76
2022/12/30 08:33:27;;;;;;;4.00;2.80;;;7.60;99.90;;;;;;2613670;39;20886;-77
2022/12/30 08:36:02;;;;;;;4.27;3.10;;;7.80;99.90;;;;;;2613232;54;20408;-76
2022/12/30 08:38:28;;;;;;;5.90;2.73;;;7.80;99.90;;;;;;2613162;54;20169;-76
2022/12/30 08:40:54;;;;;;;5.27;2.60;;;7.80;99.90;;;;;;2613304;54;20394;-76
2022/12/30 08:43:20;;;;;;;3.93;2.73;;;7.90;99.90;;;;;;2612632;47;20175;-77
2022/12/30 08:45:55;;;;;;;3.37;2.60;;;8.00;99.90;;;;;;2613079;39;20802;-77
2022/12/30 08:48:21;;;;;;;4.67;3.60;;;8.00;99.90;;;;;;2613759;54;20154;-77
2022/12/30 08:50:46;;;;;;;5.63;3.70;;;8.00;99.90;;;;;;2612154;47;20414;-78
2022/12/30 08:53:12;;;;;;;6.67;3.40;;;8.00;99.90;;;;;;2612505;54;20194;-79
2022/12/30 08:55:38;;;;;;;10.70;3.17;;;8.10;99.90;;;;;;2612373;54;20150;-79
2022/12/30 08:58:03;;;;;;;7.70;4.07;;;8.10;99.90;;;;;;2613970;54;20169;-79
2022/12/30 09:00:29;;;;;;;7.10;2.93;;;8.20;99.90;;;;;;2612831;54;20154;-78
2022/12/30 09:02:55;;;;;;;5.60;3.20;;;8.20;99.90;;;;;;2612751;47;20250;-78
2022/12/30 09:05:20;;;;;;;4.40;3.43;;;8.20;99.90;;;;;;2613321;54;20154;-74
2022/12/30 09:07:46;;;;;;;6.77;3.20;;;8.40;99.90;;;;;;2613541;54;20143;-75
2022/12/30 09:10:12;;;;;;;4.77;3.70;;;8.40;99.90;;;;;;2612752;54;20182;-74
2022/12/30 09:12:38;;;;;;;4.13;3.03;;;8.40;99.90;;;;;;2612516;54;20167;-75
2022/12/30 09:15:04;;;;;;;3.87;3.00;;;8.50;99.90;;;;;;2611612;54;20419;-77
2022/12/30 09:17:30;;;;;;;7.67;3.00;;;8.50;99.90;;;;;;2613716;54;20435;-77
2022/12/30 09:19:55;;;;;;;5.17;3.20;;;8.60;99.90;;;;;;2613463;54;20542;-78
2022/12/30 09:22:21;;;;;;;6.07;3.40;;;8.60;99.90;;;;;;2613348;54;20715;-78
2022/12/30 09:24:47;;;;;;;7.60;3.47;;;8.70;99.90;;;;;;2614423;47;20229;-79
2022/12/30 09:27:12;;;;;;;6.87;3.70;;;8.90;99.90;;;;;;2614013;39;20864;-79
2022/12/30 09:29:38;;;;;;;9.17;4.50;;;9.10;99.90;;;;;;2614814;54;20186;-79
2022/12/30 09:32:03;;;;;;;4.20;3.07;;;9.00;99.90;;;;;;2607765;47;20254;-79
2022/12/30 09:34:29;;;;;;;5.17;3.60;;;9.00;99.90;;;;;;2612897;46;20155;-78
2022/12/30 09:36:55;;;;;;;6.00;3.50;;;8.90;99.90;;;;;;2612718;54;20163;-78
2022/12/30 09:39:30;;;;;;;3.73;2.73;;;9.00;99.90;;;;;;2613887;54;21244;-79
2022/12/30 09:44:47;;;;;;;6.37;3.50;;;8.80;99.90;;;;;;2613340;54;20451;-76
2022/12/30 09:47:29;;;;;;;9.53;3.33;;;8.80;99.90;;;;;;2612497;54;20455;-76
2022/12/30 09:49:58;;;;;;;5.17;3.70;;;9.00;99.90;;;;;;2613442;54;20414;-81
2022/12/30 09:53:03;;;;;;;4.43;3.93;;;9.00;99.90;;;;;;2613031;54;20418;-81
2022/12/30 09:55:34;;;;;;;3.00;2.70;;;9.10;99.90;;;;;;2613107;54;20429;-81
2022/12/30 09:58:04;;;;;;;7.27;3.10;;;9.00;99.90;;;;;;2612143;54;20409;-80
2022/12/30 10:00:34;;;;;;;11.40;3.10;;;9.00;99.90;;;;;;2610825;54;20420;-81
2022/12/30 10:03:07;;;;;;;4.07;3.43;;;9.10;99.90;;;;;;2610325;54;20431;-82
2022/12/30 10:05:57;;;;;;;5.53;3.50;;;9.10;99.90;;;;;;2610825;54;20412;-80
2022/12/30 10:09:09;;;;;;;4.97;3.00;;;9.20;99.90;;;;;;2612238;51;20423;-80
2022/12/30 10:11:52;;;;;;;3.40;2.73;;;9.30;99.90;;;;;;2613090;54;20494;-79
2022/12/30 10:14:27;;;;;;;5.53;3.47;;;9.70;99.90;;;;;;2612701;54;20426;-77
2022/12/30 10:17:07;;;;;;;4.90;3.27;;;9.90;99.90;;;;;;2611433;54;20445;-77
2022/12/30 10:20:02;;;;;;;4.27;2.57;;;10.20;99.90;;;;;;2611628;54;20455;-75
2022/12/30 10:22:33;;;;;;;3.73;3.40;;;10.70;99.50;;;;;;2612114;54;20416;-75
2022/12/30 10:25:14;;;;;;;5.13;3.20;;;11.00;95.50;;;;;;2611574;54;20403;-79
2022/12/30 10:27:48;;;;;;;4.07;3.37;;;10.70;95.10;;;;;;2612154;54;20426;-79
2022/12/30 10:30:20;;;;;;;6.83;3.60;;;10.30;98.20;;;;;;2611011;39;21148;-80
2022/12/30 10:32:59;;;;;;;3.93;3.50;;;10.50;97.60;;;;;;2611899;54;20518;-80
2022/12/30 10:35:29;;;;;;;4.17;3.40;;;11.00;94.40;;;;;;2613833;54;20419;-78
2022/12/30 10:38:09;;;;;;;3.50;3.20;;;10.20;97.10;;;;;;2612932;54;20546;-78
2022/12/30 10:40:55;;;;;;;5.13;3.70;;;10.50;96.80;;;;;;2612864;54;20408;-78
2022/12/30 10:43:33;;;;;;;3.50;3.20;;;10.70;96.70;;;;;;2612598;54;20434;-77
2022/12/30 10:46:10;;;;;;;6.00;3.80;;;11.30;88.20;;;;;;2612437;54;20457;-77
2022/12/30 10:49:14;;;;;;;7.20;4.07;;;11.70;86.90;;;;;;2613788;54;20386;-76
2022/12/30 10:51:41;;;;;;;4.90;4.20;;;11.30;86.40;;;;;;2612905;54;20415;-78
2022/12/30 10:54:08;;;;;;;7.23;3.37;;;11.10;88.40;;;;;;2613969;46;20529;-78
2022/12/30 10:56:36;;;;;;;3.43;3.13;;;11.10;87.90;;;;;;2613478;39;20797;-78
2022/12/30 10:59:10;;;;;;;4.77;3.20;;;10.70;89.00;;;;;;2613016;54;20414;-78
2022/12/30 11:01:36;;;;;;;7.23;4.27;;;10.30;94.10;;;;;;2612447;54;20462;-77
2022/12/30 11:04:02;;;;;;;6.53;3.77;;;10.30;95.20;;;;;;2611969;39;20511;-78
2022/12/30 11:06:30;;;;;;;5.63;3.10;;;10.00;96.80;;;;;;2612168;54;20531;-77
2022/12/30 11:09:11;;;;;;;4.03;3.10;;;10.10;98.00;;;;;;2613467;54;20427;-77
2022/12/30 11:14:44;;;;;;;5.13;3.60;;;9.90;98.50;;;;;;2613082;54;20402;-78
2022/12/30 11:17:16;;;;;;;3.83;3.27;;;9.80;99.60;;;;;;2613591;54;20415;-78
2022/12/30 11:20:02;;;;;;;4.43;3.80;;;9.70;99.90;;;;;;2613424;54;20470;-79
2022/12/30 11:22:28;;;;;;;6.17;3.80;;;9.80;99.90;;;;;;2613995;54;20416;-81
2022/12/30 11:25:14;;;;;;;6.60;3.77;;;9.70;99.90;;;;;;2613274;47;20411;-81
2022/12/30 11:27:47;;;;;;;9.53;4.47;;;9.70;99.90;;;;;;2613686;54;20432;-80
2022/12/30 11:30:37;;;;;;;7.07;3.60;;;9.70;99.90;;;;;;2612784;39;20826;-77
2022/12/30 11:33:06;;;;;;;5.37;3.80;;;9.70;99.90;;;;;;2613656;47;20435;-77
2022/12/30 11:35:38;;;;;;;4.47;4.10;;;9.60;99.90;;;;;;2613510;54;20921;-77
2022/12/30 11:38:24;;;;;;;5.20;3.93;;;9.60;99.90;;;;;;2613609;54;20474;-76
2022/12/30 11:40:50;;;;;;;5.80;3.20;;;9.60;99.90;;;;;;2613777;54;20437;-76
2022/12/30 11:43:18;;;;;;;3.00;2.70;;;9.60;99.90;;;;;;2613082;54;20412;-78
2022/12/30 11:45:52;;;;;;;5.17;3.73;;;9.60;99.90;;;;;;2611750;54;20230;-77
2022/12/30 11:48:34;;;;;;;6.40;4.03;;;9.60;99.90;;;;;;2613490;54;20498;-81
2022/12/30 11:51:02;;;;;;;7.43;3.60;;;9.60;99.90;;;;;;2613454;54;20924;-81
2022/12/30 11:53:33;;;;;;;4.60;3.50;;;9.60;99.90;;;;;;2613146;39;20754;-75
2022/12/30 11:55:59;;;;;;;7.87;5.00;;;9.60;99.90;;;;;;2613186;54;20500;-75
2022/12/30 11:58:25;;;;;;;4.70;3.40;;;9.60;99.90;;;;;;2612649;39;20775;-78
2022/12/30 12:01:05;;;;;;;7.57;3.87;;;9.50;99.90;;;;;;2612497;54;20446;-79
2022/12/30 12:03:47;;;;;;;6.67;3.97;;;9.50;99.90;;;;;;2612837;54;20454;-78
2022/12/30 12:06:12;;;;;;;5.00;3.70;;;9.50;99.90;;;;;;2612746;39;21331;-77
2022/12/30 12:09:01;;;;;;;4.93;3.03;;;9.50;99.90;;;;;;2611916;47;20446;-80
2022/12/30 12:11:32;;;;;;;8.70;4.20;;;9.50;99.90;;;;;;2613304;31;20708;-81
2022/12/30 12:14:00;;;;;;;4.10;3.70;;;9.60;99.90;;;;;;2612405;54;20498;-77
2022/12/30 12:16:37;;;;;;;7.50;4.00;;;9.60;99.90;;;;;;2613675;54;20396;-80
2022/12/30 12:19:44;;;;;;;6.20;3.87;;;9.50;99.90;;;;;;2611104;39;20852;-78
2022/12/30 12:22:26;;;;;;;4.13;3.33;;;9.50;99.90;;;;;;2611487;54;20475;-78
2022/12/30 12:24:59;;;;;;;5.70;3.97;;;9.50;99.90;;;;;;2610572;54;20444;-76
2022/12/30 12:27:26;;;;;;;3.70;3.37;;;9.50;99.90;;;;;;2612389;54;20519;-77
2022/12/30 12:29:54;;;;;;;4.10;3.70;;;9.60;99.90;;;;;;2612301;54;20402;-80
2022/12/30 12:32:33;;;;;;;4.73;4.10;;;9.50;99.90;;;;;;2612117;39;20793;-81
2022/12/30 12:35:21;;;;;;;6.53;3.43;;;9.60;99.90;;;;;;2612128;54;20415;-76
2022/12/30 12:37:58;;;;;;;6.27;4.93;;;9.60;99.90;;;;;;2610587;54;20502;-76
2022/12/30 12:40:43;;;;;;;3.83;3.43;;;9.60;99.90;;;;;;2611486;47;20450;-82
2022/12/30 12:43:11;;;;;;;19.57;3.43;;;9.70;99.90;;;;;;2612488;47;20422;-79
2022/12/30 12:46:01;;;;;;;4.60;3.30;;;9.70;99.90;;;;;;2611360;54;20527;-78
2022/12/30 12:49:02;;;;;;;3.80;3.50;;;9.70;99.90;;;;;;2611335;54;20423;-80
2022/12/30 12:52:00;;;;;;;5.60;3.10;;;9.70;99.90;;;;;;2611906;54;20394;-80
2022/12/30 12:55:00;;;;;;;7.23;3.80;;;9.70;99.90;;;;;;2611549;39;21281;-76
2022/12/30 12:57:37;;;;;;;4.40;3.20;;;9.80;99.90;;;;;;2611110;54;20442;-75
2022/12/30 13:00:15;;;;;;;4.60;3.40;;;9.80;99.90;;;;;;2610620;39;21324;-82
2022/12/30 13:02:53;;;;;;;5.87;3.80;;;9.80;99.90;;;;;;2612020;54;20414;-82
2022/12/30 13:05:29;;;;;;;6.33;3.90;;;9.80;99.90;;;;;;2612176;54;20390;-78
2022/12/30 13:08:07;;;;;;;7.40;4.23;;;9.90;99.90;;;;;;2611206;47;20482;-78
2022/12/30 13:10:35;;;;;;;8.20;4.57;;;9.90;99.90;;;;;;2611650;54;20539;-78
2022/12/30 13:13:22;;;;;;;7.30;4.30;;;9.90;99.90;;;;;;2611935;46;20602;-79
2022/12/30 13:15:57;;;;;;;4.20;3.43;;;9.90;99.90;;;;;;2613325;54;20416;-79
2022/12/30 13:18:25;;;;;;;3.90;3.50;;;10.00;99.90;;;;;;2612653;54;20434;-79
2022/12/30 13:21:00;;;;;;;5.23;4.10;;;10.00;99.90;;;;;;2613119;54;20439;-77
2022/12/30 13:23:50;;;;;;;9.20;3.70;;;10.10;99.90;;;;;;2612499;39;20798;-77
2022/12/30 13:26:16;;;;;;;4.83;3.17;;;10.10;99.60;;;;;;2613194;39;20930;-78
2022/12/30 13:28:50;;;;;;;4.57;3.50;;;10.10;99.90;;;;;;2612832;54;20414;-79
2022/12/30 13:31:28;;;;;;;11.10;3.20;;;10.10;99.90;;;;;;2613532;54;20158;-78
2022/12/30 13:34:02;;;;;;;4.13;3.03;;;10.10;99.90;;;;;;2611655;54;20407;-80
2022/12/30 13:37:06;;;;;;;3.30;3.03;;;10.10;99.90;;;;;;2610796;54;20407;-81
2022/12/30 13:39:43;;;;;;;5.50;3.10;;;10.00;99.90;;;;;;2612679;54;20442;-82
2022/12/30 13:42:39;;;;;;;4.13;2.73;;;9.80;99.90;;;;;;2613839;39;20824;-82
2022/12/30 13:45:43;;;;;;;3.83;2.33;;;9.60;99.90;;;;;;2612628;54;20449;-78
2022/12/30 13:48:23;;;;;;;4.07;1.80;;;9.50;99.90;;;;;;2612005;54;20478;-79
2022/12/30 13:51:02;;;;;;;8.93;3.40;;;9.40;99.90;;;;;;2612608;54;20402;-81
2022/12/30 13:53:48;;;;;;;3.40;1.80;;;9.30;99.90;;;;;;2610061;46;20447;-78
2022/12/30 13:56:21;;;;;;;4.50;2.00;;;9.10;99.90;;;;;;2609584;46;20517;-77
2022/12/30 13:58:52;;;;;;;8.87;2.50;;;9.10;99.90;;;;;;2612844;54;20526;-77
2022/12/30 14:01:26;;;;;;;2.77;1.77;;;8.90;99.90;;;;;;2610252;54;20426;-76
2022/12/30 14:04:10;;;;;;;7.60;2.17;;;8.90;99.90;;;;;;2612101;54;20398;-79
2022/12/30 14:06:53;;;;;;;5.93;2.10;;;8.90;99.90;;;;;;2612587;54;20430;-79
2022/12/30 14:09:23;;;;;;;8.60;2.50;;;8.90;99.90;;;;;;2612017;54;20406;-83